createdAt,value
2022-12-04T00:04:57.476Z,2.20
2022-12-04T00:10:00.266Z,1.24
2022-12-04T00:20:27.754Z,1.88
2022-12-04T00:25:37.760Z,2.50
2022-12-04T00:30:47.862Z,1.84
2022-12-04T00:35:57.047Z,2.23
2022-12-04T00:41:00.759Z,2.34
2022-12-04T00:46:04.913Z,1.94
2022-12-04T00:51:10.387Z,2.87
2022-12-04T00:56:18.275Z,2.41
2022-12-04T01:01:23.921Z,2.39
2022-12-04T01:06:28.833Z,2.19
2022-12-04T01:11:32.577Z,2.22
2022-12-04T01:16:39.408Z,2.74
2022-12-04T01:21:42.252Z,2.60
2022-12-04T01:26:44.828Z,2.44
2022-12-04T01:31:48.794Z,2.28
2022-12-04T01:36:51.473Z,2.37
2022-12-04T01:41:54.053Z,1.74
2022-12-04T01:46:59.457Z,2.00
2022-12-04T01:52:06.820Z,2.10
2022-12-04T01:57:15.236Z,2.27
2022-12-04T02:02:24.297Z,2.69
2022-12-04T02:07:27.209Z,2.62
2022-12-04T02:12:38.532Z,2.54
2022-12-04T02:17:52.502Z,2.61
2022-12-04T02:23:17.014Z,1.98
2022-12-04T02:28:27.082Z,2.13
2022-12-04T02:33:34.075Z,2.61
2022-12-04T02:38:43.651Z,2.41
2022-12-04T02:43:52.821Z,2.53
2022-12-04T02:49:01.139Z,2.20
2022-12-04T02:54:08.937Z,1.96
2022-12-04T02:59:17.315Z,1.98
2022-12-04T03:04:23.326Z,2.38
2022-12-04T03:09:32.062Z,2.15
2022-12-04T03:14:41.015Z,2.59
2022-12-04T03:19:49.474Z,2.56
2022-12-04T03:24:54.134Z,2.74
2022-12-04T03:30:02.939Z,2.38
2022-12-04T03:35:12.415Z,2.90
2022-12-04T03:40:20.638Z,2.63
2022-12-04T03:45:28.715Z,2.67
2022-12-04T03:50:40.554Z,2.14
2022-12-04T03:55:47.963Z,2.40
2022-12-04T04:00:54.150Z,2.46
2022-12-04T04:06:02.675Z,1.45
2022-12-04T04:11:13.232Z,2.08
2022-12-04T04:16:38.798Z,2.34
2022-12-04T04:22:03.069Z,2.21
2022-12-04T04:27:06.360Z,2.08
2022-12-04T04:32:15.127Z,2.16
2022-12-04T04:37:30.019Z,2.46
2022-12-04T04:42:38.635Z,2.30
2022-12-04T04:47:48.261Z,2.13
2022-12-04T04:52:55.397Z,1.84
2022-12-04T04:58:07.660Z,2.17
2022-12-04T05:03:11.836Z,2.01
2022-12-04T05:08:14.606Z,1.54
2022-12-04T05:13:18.207Z,1.11
2022-12-04T05:18:22.218Z,0.97
2022-12-04T05:23:25.360Z,1.53
2022-12-04T05:28:28.612Z,1.26
2022-12-04T05:33:32.560Z,0.97
2022-12-04T05:38:35.326Z,1.32
2022-12-04T05:43:37.962Z,1.06
2022-12-04T05:48:42.037Z,0.78
2022-12-04T05:53:44.667Z,0.99
2022-12-04T05:58:47.244Z,1.27
2022-12-04T06:03:51.254Z,1.78
2022-12-04T06:08:56.256Z,1.70
2022-12-04T06:14:00.478Z,1.66
2022-12-04T06:19:07.866Z,0.86
2022-12-04T06:24:14.281Z,1.45
2022-12-04T06:29:17.342Z,1.72
2022-12-04T06:34:21.489Z,1.49
2022-12-04T06:39:24.217Z,1.90
2022-12-04T06:44:26.915Z,2.41
2022-12-04T06:49:30.846Z,1.66
2022-12-04T06:54:33.574Z,1.30
2022-12-04T06:59:36.880Z,1.81
2022-12-04T07:04:40.881Z,2.16
2022-12-04T07:09:44.234Z,1.96
2022-12-04T07:14:46.820Z,2.08
2022-12-04T07:19:50.889Z,2.82
2022-12-04T07:24:53.528Z,2.88
2022-12-04T07:29:57.384Z,2.59
2022-12-04T07:35:01.609Z,2.53
2022-12-04T07:40:07.357Z,2.25
2022-12-04T07:45:10.943Z,2.53
2022-12-04T07:50:14.966Z,2.75
2022-12-04T07:55:23.004Z,2.30
2022-12-04T08:00:25.950Z,2.41
2022-12-04T08:05:30.015Z,2.45
2022-12-04T08:10:32.852Z,2.72
2022-12-04T08:15:35.873Z,2.76
2022-12-04T08:20:40.014Z,1.95
2022-12-04T08:25:42.780Z,1.98
2022-12-04T08:30:45.419Z,2.38
2022-12-04T08:35:49.496Z,2.76
2022-12-04T08:40:52.176Z,2.53
2022-12-04T08:45:58.946Z,2.68
2022-12-04T08:51:04.183Z,2.33
2022-12-04T08:56:07.550Z,2.14
2022-12-04T09:01:12.964Z,1.90
2022-12-04T09:06:18.862Z,2.38
2022-12-04T09:11:25.979Z,2.40
2022-12-04T09:16:29.265Z,2.63
2022-12-04T09:21:33.682Z,2.46
2022-12-04T09:26:36.584Z,2.51
2022-12-04T09:31:39.398Z,2.43
2022-12-04T09:36:43.636Z,2.58
2022-12-04T09:42:09.684Z,2.31
2022-12-04T09:47:20.922Z,1.97
2022-12-04T09:52:36.579Z,1.83
2022-12-04T09:57:44.917Z,2.24
2022-12-04T10:02:52.767Z,2.34
2022-12-04T10:08:07.075Z,2.48
2022-12-04T10:13:31.241Z,2.07
2022-12-04T10:18:45.771Z,2.34
2022-12-04T10:24:00.058Z,2.09
2022-12-04T10:29:08.189Z,1.61
2022-12-04T10:34:17.464Z,1.78
2022-12-04T10:39:26.288Z,2.16
2022-12-04T10:44:28.959Z,2.24
2022-12-04T10:49:35.213Z,2.70
2022-12-04T10:54:47.836Z,3.08
2022-12-04T10:59:52.672Z,3.30
2022-12-04T11:05:00.248Z,2.70
2022-12-04T11:10:07.634Z,2.56
2022-12-04T11:15:15.691Z,2.68
2022-12-04T11:20:26.998Z,2.30
2022-12-04T11:25:41.090Z,3.09
2022-12-04T11:30:50.175Z,2.70
2022-12-04T11:35:56.754Z,3.20
2022-12-04T11:41:04.727Z,2.67
2022-12-04T11:46:08.117Z,2.85
2022-12-04T11:51:25.568Z,2.43
2022-12-04T11:56:34.937Z,2.29
2022-12-04T12:01:47.413Z,2.38
2022-12-04T12:06:59.310Z,2.47
2022-12-04T12:12:08.412Z,2.48
2022-12-04T12:17:21.811Z,2.22
2022-12-04T12:22:48.431Z,2.66
2022-12-04T12:28:10.158Z,2.21
2022-12-04T12:33:18.426Z,2.65
2022-12-04T12:38:25.968Z,2.96
2022-12-04T12:43:32.771Z,2.40
2022-12-04T12:48:41.130Z,2.86
2022-12-04T12:53:48.057Z,2.65
2022-12-04T12:58:58.845Z,2.92
2022-12-04T13:04:09.904Z,2.99
2022-12-04T13:09:19.106Z,2.30
2022-12-04T13:14:23.081Z,2.42
2022-12-04T13:19:30.887Z,2.51
2022-12-04T13:24:53.761Z,2.51
2022-12-04T13:30:15.582Z,2.29
2022-12-04T13:35:29.590Z,2.44
2022-12-04T13:40:36.408Z,2.57
2022-12-04T13:45:42.129Z,2.96
2022-12-04T13:50:44.873Z,2.54
2022-12-04T13:55:56.590Z,2.49
2022-12-04T14:01:13.041Z,2.30
2022-12-04T14:06:25.347Z,2.69
2022-12-04T14:11:30.115Z,2.96
2022-12-04T14:16:39.459Z,2.70
2022-12-04T14:21:43.305Z,2.62
2022-12-04T14:32:21.575Z,2.61
2022-12-04T14:37:29.470Z,2.77
2022-12-04T14:42:36.802Z,2.14
2022-12-04T14:47:50.846Z,2.70
2022-12-04T14:52:59.754Z,2.45
2022-12-04T14:58:23.974Z,2.79
2022-12-04T15:03:35.324Z,3.03
2022-12-04T15:08:37.987Z,3.12
2022-12-04T15:13:41.704Z,2.93
2022-12-04T15:18:56.782Z,2.69
2022-12-04T15:23:59.890Z,1.85
2022-12-04T15:29:06.330Z,1.96
2022-12-04T15:34:16.808Z,2.37
2022-12-04T15:39:21.439Z,1.92
2022-12-04T15:44:28.485Z,2.42
2022-12-04T15:49:34.106Z,2.54
2022-12-04T15:54:38.270Z,2.25
2022-12-04T15:59:40.906Z,1.93
2022-12-04T16:04:47.168Z,2.13
2022-12-04T16:10:01.277Z,2.39
2022-12-04T16:15:06.193Z,2.21
2022-12-04T16:20:12.421Z,1.78
2022-12-04T16:25:18.898Z,2.26
2022-12-04T16:30:21.604Z,2.15
2022-12-04T16:35:25.549Z,2.36
2022-12-04T16:40:28.153Z,2.74
2022-12-04T16:45:34.442Z,3.00
2022-12-04T16:50:39.878Z,3.22
2022-12-04T16:55:42.519Z,2.89
2022-12-04T17:00:50.427Z,2.88
2022-12-04T17:05:54.584Z,2.94
2022-12-04T17:10:57.208Z,2.73
2022-12-04T17:16:00.110Z,3.09
2022-12-04T17:21:07.508Z,3.23
2022-12-04T17:26:14.147Z,3.29
2022-12-04T17:31:19.275Z,3.21
2022-12-04T17:36:26.288Z,3.12
2022-12-04T17:41:36.270Z,2.86
2022-12-04T17:46:39.821Z,2.92
2022-12-04T17:51:45.278Z,3.26
2022-12-04T17:56:50.393Z,3.20
2022-12-04T18:01:56.061Z,3.52
2022-12-04T18:07:00.117Z,2.93
2022-12-04T18:12:03.287Z,2.65
2022-12-04T18:17:08.927Z,2.67
2022-12-04T18:22:21.997Z,2.20
2022-12-04T18:27:25.283Z,2.29
2022-12-04T18:32:29.419Z,2.11
2022-12-04T18:37:34.070Z,2.32
2022-12-04T18:42:36.766Z,2.71
2022-12-04T18:47:39.466Z,2.56
2022-12-04T18:52:43.430Z,3.34
2022-12-04T18:57:46.094Z,3.09
2022-12-04T19:02:48.777Z,3.19
2022-12-04T19:07:53.705Z,3.36
2022-12-04T19:12:56.448Z,3.02
2022-12-04T19:17:59.019Z,2.68
2022-12-04T19:23:03.049Z,2.52
2022-12-04T19:28:06.415Z,2.78
2022-12-04T19:33:09.056Z,2.79
2022-12-04T19:38:12.975Z,3.11
2022-12-04T19:43:15.586Z,3.18
2022-12-04T19:48:18.917Z,3.21
2022-12-04T19:53:22.834Z,3.40
2022-12-04T19:58:26.212Z,3.12
2022-12-04T20:03:29.102Z,3.37
2022-12-04T20:08:33.429Z,2.96
2022-12-04T20:13:36.286Z,3.10
2022-12-04T20:18:40.634Z,3.14
2022-12-04T20:23:49.339Z,3.01
2022-12-04T20:28:52.025Z,3.06
2022-12-04T20:33:55.900Z,3.26
2022-12-04T20:39:00.468Z,2.97
2022-12-04T20:44:03.936Z,3.25
2022-12-04T20:49:08.544Z,3.47
2022-12-04T20:54:18.076Z,3.84
2022-12-04T20:59:23.133Z,3.75
2022-12-04T21:04:25.783Z,3.87
2022-12-04T21:09:30.812Z,3.90
2022-12-04T21:14:51.109Z,3.30
2022-12-04T21:19:55.061Z,3.09
2022-12-04T21:24:59.247Z,3.11
2022-12-04T21:30:02.074Z,3.21
2022-12-04T21:35:05.495Z,3.19
2022-12-04T21:40:10.775Z,3.43
2022-12-04T21:45:13.376Z,3.67
2022-12-04T21:50:15.950Z,3.84
2022-12-04T21:55:20.010Z,4.01
2022-12-04T22:00:22.746Z,3.94
2022-12-04T22:05:25.412Z,4.15
2022-12-04T22:10:29.347Z,4.14
2022-12-04T22:15:31.931Z,4.07
2022-12-04T22:20:34.699Z,4.20
2022-12-04T22:25:39.919Z,3.49
2022-12-04T22:30:42.563Z,3.66
2022-12-04T22:35:45.148Z,3.48
2022-12-04T22:40:49.049Z,3.17
2022-12-04T22:45:51.630Z,3.09
2022-12-04T22:50:57.882Z,3.38
2022-12-04T22:56:06.374Z,3.42
2022-12-04T23:01:13.803Z,3.29
2022-12-04T23:06:18.009Z,3.53
2022-12-04T23:11:25.662Z,3.41
2022-12-04T23:16:29.609Z,2.92
2022-12-04T23:21:32.392Z,2.99
2022-12-04T23:26:41.139Z,3.18
2022-12-04T23:31:43.777Z,3.70
2022-12-04T23:36:46.470Z,3.49
2022-12-04T23:41:50.436Z,3.66
2022-12-04T23:46:53.125Z,3.70
2022-12-04T23:51:55.754Z,3.50
2022-12-04T23:56:59.727Z,3.47
